Furniss, Pennsylvania
Current Conditions -  °F | °C
As of 10:54 AM on Wednesday 26 Nov 2014 (Local Time) from KAPG Reporting Station
Light Snow Light Snow  
Wind Chill: 29°   Ceiling: 500
Heat Index: 36°   Visibility: 1mi
Dew Point: 36°   Wind: 9mph
Humidity: 100%   Direction: 20°NNE
Pressure: 30.04"   Gusts: NA
Location:  39.7675°N, 76.1818°W
Report Text: KAPG 261554Z 02008KT 1SM -RA -SN BR OVC005 02/02 A3004 RMK SNB45
Loading
Personal Weather Stations






























Interactive Weather Map New forecast layout! Learn more

10-Day Weather Forecast

Advertisements
Track Severe Weather on mobile